Time;durP1;ratioP1;P1;durP2;ratioP2;P2;SDS_P1;SDS_P2;PMS_P1;PMS_P2;Temp;Humidity;BMP_temperature;BMP_pressure;BME280_temperature;BME280_humidity;BME280_pressure;Samples;Min_cycle;Max_cycle;Signal;HPM_P1;HPM_P2
2022/01/30 00:03:45;;;;;;;4.50;0.88;;;7.30;1.00;;;;;;10289964;28;84994;-55
2022/01/30 00:08:47;;;;;;;8.63;1.58;;;7.20;1.00;;;;;;10288505;28;84214;-52
2022/01/30 00:13:48;;;;;;;9.07;1.75;;;7.20;1.00;;;;;;10288071;28;86216;-54
2022/01/30 00:19:04;;;;;;;10.18;1.13;;;7.20;1.00;;;;;;10288552;28;85132;-55
2022/01/30 00:24:14;;;;;;;9.07;1.15;;;7.10;1.00;;;;;;10287695;28;86332;-56
2022/01/30 00:29:15;;;;;;;7.32;1.83;;;7.00;1.00;;;;;;10289812;28;85172;-53
2022/01/30 00:34:15;;;;;;;10.18;2.22;;;7.00;1.00;;;;;;10269508;28;85907;-52
2022/01/30 00:39:16;;;;;;;5.43;1.58;;;7.00;1.00;;;;;;10286494;28;86016;-52
2022/01/30 00:44:17;;;;;;;7.75;0.95;;;7.10;1.00;;;;;;10270799;28;86847;-52
2022/01/30 00:49:19;;;;;;;11.25;1.40;;;7.10;1.00;;;;;;10287638;28;84801;-55
2022/01/30 00:54:19;;;;;;;9.63;1.45;;;7.00;1.00;;;;;;10288067;28;84849;-52
2022/01/30 00:59:20;;;;;;;9.88;0.98;;;6.90;1.00;;;;;;10287611;28;84933;-54
2022/01/30 01:04:21;;;;;;;14.80;1.60;;;6.90;1.00;;;;;;10286329;28;86831;-53
2022/01/30 01:09:35;;;;;;;7.60;1.63;;;6.80;1.00;;;;;;10289126;28;87097;-56
2022/01/30 01:25:16;;;;;;;6.65;1.00;;;6.60;1.00;;;;;;10308399;28;86975;-55
2022/01/30 01:30:17;;;;;;;5.75;1.17;;;6.60;1.00;;;;;;10327814;28;84220;-52
2022/01/30 01:35:18;;;;;;;5.13;0.65;;;6.60;1.00;;;;;;10326974;28;86907;-52
2022/01/30 01:40:19;;;;;;;5.18;1.02;;;6.60;1.00;;;;;;10327060;28;85014;-51
2022/01/30 01:45:22;;;;;;;5.10;1.27;;;6.60;1.00;;;;;;10325955;28;86281;-55
2022/01/30 01:50:38;;;;;;;8.13;1.02;;;6.60;1.00;;;;;;10325527;28;85939;-51
2022/01/30 01:55:42;;;;;;;4.65;0.80;;;6.60;1.00;;;;;;10325537;28;85953;-51
2022/01/30 02:00:51;;;;;;;2.00;0.45;;;6.60;1.00;;;;;;10310446;28;86662;-54
2022/01/30 02:05:56;;;;;;;4.68;1.13;;;6.70;1.00;;;;;;10326388;28;84176;-49
2022/01/30 02:26:41;;;;;;;6.55;1.05;;;6.60;1.00;;;;;;10331518;28;86861;-55
2022/01/30 02:31:42;;;;;;;4.15;0.70;;;6.50;1.00;;;;;;10331168;28;85925;-53
2022/01/30 02:36:51;;;;;;;1.38;0.13;;;6.40;1.00;;;;;;10298672;28;86761;-51
2022/01/30 02:41:52;;;;;;;8.52;0.57;;;6.40;1.00;;;;;;10290180;28;86527;-53
2022/01/30 02:46:56;;;;;;;6.07;0.70;;;6.30;1.00;;;;;;10290532;28;86745;-55
2022/01/30 02:52:04;;;;;;;9.10;1.02;;;6.30;1.00;;;;;;10290655;28;86065;-52
2022/01/30 02:57:05;;;;;;;3.28;0.88;;;6.20;1.00;;;;;;10272799;28;85704;-52
2022/01/30 03:02:06;;;;;;;6.50;0.85;;;6.20;1.00;;;;;;10289790;28;86621;-53
2022/01/30 03:07:07;;;;;;;4.72;1.00;;;6.20;1.00;;;;;;10289015;28;86073;-54
2022/01/30 03:12:17;;;;;;;1.58;0.57;;;6.10;1.00;;;;;;10296783;28;84988;-53
2022/01/30 03:17:18;;;;;;;4.85;0.88;;;6.10;1.00;;;;;;10330145;28;85820;-53
2022/01/30 03:22:18;;;;;;;4.28;0.75;;;6.00;1.00;;;;;;10331438;28;84840;-54
2022/01/30 03:27:19;;;;;;;3.15;0.75;;;6.00;1.00;;;;;;10332139;28;84126;-54
2022/01/30 03:32:28;;;;;;;3.95;0.90;;;5.90;1.00;;;;;;10309020;28;86928;-54
2022/01/30 03:37:30;;;;;;;5.35;0.60;;;5.80;1.00;;;;;;10292926;28;86065;-55
2022/01/30 03:42:31;;;;;;;2.35;0.90;;;5.80;1.00;;;;;;10288998;28;86809;-52
2022/01/30 03:47:32;;;;;;;3.05;0.68;;;5.80;1.00;;;;;;10288109;28;86079;-52
2022/01/30 03:52:33;;;;;;;4.18;0.50;;;5.80;1.00;;;;;;10293125;28;86125;-51
2022/01/30 03:57:35;;;;;;;7.18;1.42;;;5.80;1.00;;;;;;10308609;28;86753;-54
2022/01/30 04:02:35;;;;;;;5.10;1.02;;;5.70;1.00;;;;;;10308555;28;87157;-57
2022/01/30 04:07:36;;;;;;;2.97;0.50;;;5.70;1.00;;;;;;10252733;28;85787;-53
2022/01/30 04:13:07;;;;;;;5.78;0.93;;;5.70;1.00;;;;;;10276906;28;87002;-53
2022/01/30 04:18:32;;;;;;;0.65;0.43;;;5.70;1.00;;;;;;10274392;28;86047;-53
2022/01/30 04:23:51;;;;;;;8.80;1.17;;;5.70;1.00;;;;;;10270833;28;84035;-51
2022/01/30 04:29:13;;;;;;;4.25;0.93;;;5.70;1.00;;;;;;10273837;28;86272;-52
2022/01/30 04:34:34;;;;;;;2.42;0.70;;;5.70;1.00;;;;;;10282722;28;85364;-51
2022/01/30 05:02:13;;;;;;;4.65;0.50;;;5.90;1.00;;;;;;10268626;28;86765;-51
2022/01/30 05:12:51;;;;;;;5.47;1.15;;;5.90;1.00;;;;;;10253844;22;84829;-43
2022/01/30 05:18:29;;;;;;;3.05;0.85;;;5.80;1.00;;;;;;10192500;28;84168;-46
2022/01/30 05:23:48;;;;;;;1.67;0.32;;;5.80;1.00;;;;;;10248544;28;84581;-45
2022/01/30 05:28:59;;;;;;;7.05;0.70;;;5.70;1.00;;;;;;10227370;28;85901;-46
2022/01/30 05:34:15;;;;;;;3.75;0.68;;;5.70;1.00;;;;;;10226457;28;87030;-49
2022/01/30 05:39:28;;;;;;;6.53;0.82;;;5.60;1.00;;;;;;10243556;28;85881;-43
2022/01/30 05:44:55;;;;;;;3.42;0.73;;;5.60;1.00;;;;;;10226713;28;86070;-44
2022/01/30 05:50:11;;;;;;;7.53;1.05;;;5.70;1.00;;;;;;10257010;28;86022;-43
2022/01/30 05:55:20;;;;;;;3.28;1.08;;;5.70;1.00;;;;;;10265022;28;86959;-42
2022/01/30 06:00:21;;;;;;;3.45;0.85;;;5.60;1.00;;;;;;10262509;28;87096;-47
2022/01/30 06:05:25;;;;;;;7.28;1.10;;;5.60;1.00;;;;;;10250689;28;84344;-45
2022/01/30 06:10:27;;;;;;;6.88;1.08;;;5.60;1.00;;;;;;10254259;28;84763;-44
2022/01/30 06:15:28;;;;;;;10.88;0.80;;;5.70;1.00;;;;;;10236531;28;86869;-44
2022/01/30 06:20:38;;;;;;;3.95;0.73;;;5.80;1.00;;;;;;10236002;28;86998;-50
2022/01/30 06:25:59;;;;;;;13.05;1.30;;;5.80;1.00;;;;;;10246902;28;85240;-43
2022/01/30 06:31:18;;;;;;;3.90;1.33;;;5.90;1.00;;;;;;10234445;28;84517;-44
2022/01/30 06:36:37;;;;;;;11.27;1.48;;;5.90;1.00;;;;;;10247103;28;84819;-47
2022/01/30 06:41:58;;;;;;;11.07;1.17;;;5.80;1.00;;;;;;10240109;28;84253;-48
2022/01/30 06:47:17;;;;;;;10.20;1.98;;;5.80;1.00;;;;;;10237767;28;84209;-49
2022/01/30 06:52:53;;;;;;;11.30;1.63;;;5.80;1.00;;;;;;10244639;28;84929;-41
2022/01/30 06:58:09;;;;;;;8.43;1.38;;;5.80;1.00;;;;;;10249296;28;84248;-47
2022/01/30 07:03:49;;;;;;;10.63;1.92;;;5.70;1.00;;;;;;10109070;28;84616;-46
2022/01/30 07:08:58;;;;;;;15.32;1.67;;;5.70;1.00;;;;;;10184623;28;85700;-43
2022/01/30 07:13:59;;;;;;;7.03;1.35;;;5.60;1.00;;;;;;10212756;28;84142;-45
2022/01/30 07:19:00;;;;;;;9.60;1.25;;;5.60;1.00;;;;;;10230404;28;84926;-43
2022/01/30 07:24:01;;;;;;;3.92;0.80;;;5.60;1.00;;;;;;10239757;28;86205;-49
2022/01/30 07:29:03;;;;;;;8.35;1.60;;;5.60;1.00;;;;;;10222257;28;86023;-50
2022/01/30 07:34:04;;;;;;;10.05;1.40;;;5.70;1.00;;;;;;10222658;28;84545;-43
2022/01/30 07:39:07;;;;;;;19.73;2.22;;;5.70;1.00;;;;;;10238142;28;84166;-42
2022/01/30 07:44:08;;;;;;;7.07;1.25;;;5.60;1.00;;;;;;10224400;28;84189;-47
2022/01/30 07:49:10;;;;;;;8.18;1.48;;;5.60;1.00;;;;;;10246095;28;87064;-47
2022/01/30 07:54:11;;;;;;;14.45;2.05;;;5.60;1.00;;;;;;10249161;28;84795;-46
2022/01/30 07:59:12;;;;;;;12.88;1.55;;;5.60;1.00;;;;;;10263404;28;87205;-46
2022/01/30 08:04:12;;;;;;;11.93;1.30;;;5.50;1.00;;;;;;10248835;28;84270;-46
2022/01/30 08:09:13;;;;;;;9.18;1.58;;;5.60;1.00;;;;;;10247721;28;84973;-49
2022/01/30 08:14:14;;;;;;;9.65;1.35;;;5.70;1.00;;;;;;10263218;28;84091;-45
2022/01/30 08:19:15;;;;;;;11.43;2.00;;;5.70;1.00;;;;;;10288093;28;84002;-46
2022/01/30 08:24:19;;;;;;;8.75;1.83;;;5.80;1.00;;;;;;10281470;28;84947;-49
2022/01/30 08:29:19;;;;;;;6.45;1.23;;;6.00;1.00;;;;;;10267567;28;84149;-44
2022/01/30 08:34:20;;;;;;;8.02;1.02;;;6.00;1.00;;;;;;10295810;28;86926;-47
2022/01/30 08:39:21;;;;;;;10.82;1.45;;;6.10;1.00;;;;;;10220672;28;84859;-50
2022/01/30 08:44:21;;;;;;;11.63;1.20;;;6.30;1.00;;;;;;10206915;28;84959;-46
2022/01/30 08:49:22;;;;;;;18.75;2.25;;;6.70;1.00;;;;;;10205794;28;84901;-48
2022/01/30 08:54:22;;;;;;;11.07;1.75;;;7.10;1.00;;;;;;10205818;28;85109;-44
2022/01/30 08:59:23;;;;;;;6.50;1.50;;;7.80;1.00;;;;;;10236644;28;84490;-53
2022/01/30 09:04:24;;;;;;;8.40;2.30;;;7.90;1.00;;;;;;10266125;28;85309;-56
2022/01/30 09:09:25;;;;;;;7.10;1.67;;;8.00;99.90;;;;;;10269594;28;85002;-59
2022/01/30 09:14:26;;;;;;;13.20;1.67;;;7.60;99.90;;;;;;10277270;28;84065;-55
2022/01/30 09:19:27;;;;;;;12.93;2.13;;;7.40;99.90;;;;;;10286217;28;84227;-56
2022/01/30 09:24:27;;;;;;;8.95;2.00;;;7.10;99.90;;;;;;10273728;28;84118;-52
2022/01/30 09:29:28;;;;;;;11.48;2.25;;;7.20;1.00;;;;;;10226805;28;84846;-52
2022/01/30 09:34:29;;;;;;;11.38;1.90;;;7.40;1.00;;;;;;10245043;28;85061;-60
2022/01/30 09:39:30;;;;;;;11.30;1.45;;;7.40;1.00;;;;;;10255613;28;84437;-55
2022/01/30 09:44:39;;;;;;;10.88;1.42;;;7.50;1.00;;;;;;10277396;28;84914;-49
2022/01/30 09:49:43;;;;;;;13.50;1.95;;;8.10;99.90;;;;;;10284615;28;84933;-57
2022/01/30 09:54:45;;;;;;;11.05;2.03;;;8.70;99.90;;;;;;10286911;28;84267;-51
2022/01/30 09:59:46;;;;;;;17.67;2.53;;;8.90;1.00;;;;;;10243248;28;84921;-54
2022/01/30 10:04:47;;;;;;;20.67;2.30;;;9.20;1.00;;;;;;10241846;28;85161;-52
2022/01/30 10:09:49;;;;;;;6.55;1.75;;;9.10;1.00;;;;;;10220272;28;85010;-60
2022/01/30 10:15:01;;;;;;;12.57;1.92;;;9.20;1.00;;;;;;10210071;28;84288;-49
2022/01/30 10:20:07;;;;;;;11.68;2.38;;;9.40;1.00;;;;;;10212639;28;84123;-52
2022/01/30 10:25:18;;;;;;;8.75;1.75;;;9.30;1.00;;;;;;10208795;28;84829;-48
2022/01/30 10:30:21;;;;;;;17.00;2.70;;;9.40;1.00;;;;;;10257798;28;86579;-55
2022/01/30 10:35:23;;;;;;;14.27;2.17;;;9.40;99.90;;;;;;10225118;28;84288;-53
2022/01/30 10:40:34;;;;;;;15.95;2.42;;;9.10;1.00;;;;;;10228275;28;84885;-56
2022/01/30 10:45:35;;;;;;;11.27;1.98;;;8.90;1.00;;;;;;10220357;28;85240;-51
2022/01/30 10:50:39;;;;;;;14.52;1.77;;;8.30;99.90;;;;;;10236480;28;84928;-54
2022/01/30 10:55:43;;;;;;;10.50;1.65;;;8.30;99.90;;;;;;10224929;28;84134;-52
2022/01/30 11:00:52;;;;;;;8.75;1.48;;;8.40;1.00;;;;;;10255571;28;85346;-53
2022/01/30 11:05:57;;;;;;;12.52;2.05;;;8.80;1.00;;;;;;10232100;28;84971;-45
2022/01/30 11:11:14;;;;;;;8.75;1.33;;;9.10;99.90;;;;;;10272908;22;85151;-61
2022/01/30 11:21:38;;;;;;;14.07;2.20;;;9.20;99.90;;;;;;10224385;28;84018;-61
2022/01/30 11:26:39;;;;;;;12.25;1.73;;;9.70;99.90;;;;;;10243701;28;85070;-57
2022/01/30 11:31:41;;;;;;;10.27;1.60;;;9.00;1.00;;;;;;10249409;28;84289;-62
2022/01/30 11:36:44;;;;;;;13.77;1.92;;;8.70;1.00;;;;;;10248175;28;85016;-65
2022/01/30 11:42:05;;;;;;;12.43;2.47;;;9.00;99.90;;;;;;10269679;28;86602;-63
2022/01/30 11:47:16;;;;;;;13.38;1.95;;;9.40;1.00;;;;;;10263907;28;85206;-66
2022/01/30 11:52:19;;;;;;;5.85;1.67;;;9.60;1.00;;;;;;10237612;28;86882;-57
2022/01/30 11:57:20;;;;;;;12.73;2.00;;;9.50;96.90;;;;;;10243884;28;84685;-61
2022/01/30 12:02:33;;;;;;;7.90;2.22;;;9.60;1.00;;;;;;10247982;28;84507;-61
2022/01/30 12:07:45;;;;;;;14.88;2.00;;;9.60;1.00;;;;;;10248794;28;84894;-60
2022/01/30 12:12:56;;;;;;;20.00;2.88;;;9.50;1.00;;;;;;10277803;28;84377;-63
2022/01/30 12:17:57;;;;;;;12.80;2.58;;;9.00;99.90;;;;;;10232345;28;85133;-64
2022/01/30 12:22:59;;;;;;;7.95;2.30;;;8.90;1.00;;;;;;10284159;28;84908;-60
2022/01/30 12:28:03;;;;;;;11.10;2.03;;;8.90;1.00;;;;;;10291671;28;84957;-66
2022/01/30 12:33:34;;;;;;;5.60;1.25;;;8.90;1.00;;;;;;10256629;28;84991;-67
2022/01/30 12:38:35;;;;;;;11.27;1.63;;;9.00;1.00;;;;;;10250139;28;84884;-67
2022/01/30 12:43:35;;;;;;;9.95;1.98;;;8.90;1.00;;;;;;10248433;28;85125;-68
2022/01/30 12:48:36;;;;;;;9.05;1.95;;;8.60;99.90;;;;;;10251878;28;84305;-55
2022/01/30 12:53:38;;;;;;;11.02;2.25;;;8.50;99.90;;;;;;10248892;28;85440;-54
2022/01/30 12:58:44;;;;;;;13.32;2.35;;;8.40;99.90;;;;;;10246707;28;85979;-55
2022/01/30 13:03:44;;;;;;;13.52;2.45;;;8.30;1.00;;;;;;10248072;28;85654;-56
2022/01/30 13:08:51;;;;;;;14.65;2.50;;;8.40;1.00;;;;;;10248135;28;85635;-56
2022/01/30 13:14:06;;;;;;;12.82;1.90;;;8.30;1.00;;;;;;10247686;28;84125;-55
2022/01/30 13:19:09;;;;;;;17.45;2.63;;;8.20;1.00;;;;;;10247879;28;84269;-54
2022/01/30 13:24:16;;;;;;;10.00;1.98;;;8.00;1.00;;;;;;10246040;28;84225;-57
2022/01/30 13:29:21;;;;;;;5.95;1.65;;;7.90;99.90;;;;;;10250109;28;86582;-57
2022/01/30 13:34:27;;;;;;;22.55;3.08;;;7.90;1.00;;;;;;10265350;28;84848;-57
2022/01/30 13:45:04;;;;;;;14.93;2.47;;;8.10;1.00;;;;;;10248783;28;84975;-56
2022/01/30 13:50:15;;;;;;;14.65;2.33;;;8.10;1.00;;;;;;10233853;28;84749;-58
2022/01/30 13:55:16;;;;;;;16.60;3.03;;;8.10;99.90;;;;;;10250464;28;84941;-57
2022/01/30 14:00:19;;;;;;;10.45;1.92;;;7.90;1.00;;;;;;10276433;28;84020;-59
2022/01/30 14:05:30;;;;;;;12.65;1.95;;;7.80;99.90;;;;;;10271730;28;85106;-55
2022/01/30 14:10:33;;;;;;;14.32;1.98;;;7.60;99.90;;;;;;10238657;28;84268;-55
2022/01/30 14:15:35;;;;;;;7.22;1.13;;;7.60;99.90;;;;;;10254667;28;84092;-55
2022/01/30 14:20:36;;;;;;;11.68;2.00;;;7.60;1.00;;;;;;10294112;28;84256;-56
2022/01/30 14:25:37;;;;;;;12.52;2.30;;;7.40;99.90;;;;;;10242314;28;84973;-63
2022/01/30 14:30:39;;;;;;;9.80;1.80;;;7.30;99.90;;;;;;10259737;28;84892;-61
2022/01/30 14:35:40;;;;;;;10.05;1.83;;;7.30;99.90;;;;;;10267986;28;84292;-52
2022/01/30 14:40:41;;;;;;;11.50;1.98;;;7.30;1.00;;;;;;10249398;28;84839;-50
2022/01/30 14:45:41;;;;;;;6.13;1.30;;;7.10;1.00;;;;;;10249197;28;84907;-54
2022/01/30 14:50:43;;;;;;;15.75;2.17;;;7.10;1.00;;;;;;10253306;28;85401;-51
2022/01/30 14:55:44;;;;;;;10.95;2.15;;;6.90;1.00;;;;;;10255233;28;84115;-50
2022/01/30 15:00:45;;;;;;;6.40;1.38;;;6.90;1.00;;;;;;10251686;28;84020;-52
2022/01/30 15:05:45;;;;;;;13.55;1.38;;;6.80;1.00;;;;;;10253349;28;84067;-52
2022/01/30 15:10:46;;;;;;;20.80;1.85;;;6.80;1.00;;;;;;10252285;28;85787;-55
2022/01/30 15:15:48;;;;;;;16.92;2.10;;;6.70;99.90;;;;;;10253320;28;86424;-54
2022/01/30 15:20:49;;;;;;;12.48;2.38;;;6.70;99.90;;;;;;10253031;28;84623;-53
2022/01/30 15:25:49;;;;;;;8.60;2.03;;;6.70;1.00;;;;;;10253494;28;84976;-53
2022/01/30 15:30:50;;;;;;;10.13;1.33;;;6.80;63.20;;;;;;10249604;28;84863;-55
2022/01/30 15:35:52;;;;;;;3.78;1.10;;;6.70;99.90;;;;;;10252412;28;84202;-60
2022/01/30 15:40:53;;;;;;;11.30;1.65;;;6.60;1.00;;;;;;10242767;28;85758;-57
2022/01/30 15:51:16;;;;;;;10.43;1.63;;;6.50;99.90;;;;;;10260583;28;85233;-64
2022/01/30 15:56:18;;;;;;;14.85;2.17;;;6.50;99.90;;;;;;10231491;28;85594;-60
2022/01/30 16:01:19;;;;;;;14.60;2.33;;;6.40;99.90;;;;;;10248475;28;87154;-62
2022/01/30 16:06:19;;;;;;;16.38;2.15;;;6.30;99.90;;;;;;10268601;28;86138;-58
2022/01/30 16:11:47;;;;;;;14.23;2.40;;;6.30;1.00;;;;;;10238540;28;84169;-63
2022/01/30 16:16:42;;;;;;;18.35;1.88;;;6.20;1.00;;;;;;10247544;28;84219;-64
2022/01/30 16:21:42;;;;;;;13.95;2.15;;;6.10;1.00;;;;;;10239938;28;85016;-61
2022/01/30 16:26:46;;;;;;;15.52;2.30;;;6.10;1.00;;;;;;10244196;28;84999;-61
2022/01/30 16:31:50;;;;;;;18.60;3.03;;;6.10;1.00;;;;;;10248793;28;85929;-56
2022/01/30 16:36:51;;;;;;;7.35;2.15;;;6.00;1.00;;;;;;10230183;28;85303;-59
2022/01/30 16:41:52;;;;;;;7.90;1.60;;;6.00;1.00;;;;;;10249761;28;84232;-56
2022/01/30 16:51:57;;;;;;;14.55;2.88;;;5.90;1.00;;;;;;10247859;28;84041;-60
2022/01/30 16:56:57;;;;;;;16.23;2.15;;;5.90;1.00;;;;;;10245482;28;85039;-59
2022/01/30 17:01:58;;;;;;;10.07;2.75;;;5.80;1.00;;;;;;10241850;28;85060;-56
2022/01/30 17:06:59;;;;;;;6.70;1.73;;;5.80;1.00;;;;;;10255389;28;84309;-58
2022/01/30 17:12:17;;;;;;;9.57;2.95;;;5.80;14.10;;;;;;10248739;23;84988;-57
2022/01/30 17:17:18;;;;;;;10.90;2.20;;;5.80;31.40;;;;;;10268874;28;84165;-56
2022/01/30 17:22:20;;;;;;;11.60;2.85;;;5.80;58.70;;;;;;10261276;28;85375;-50
2022/01/30 17:27:21;;;;;;;13.45;2.35;;;5.90;99.90;;;;;;10265266;28;84848;-45
2022/01/30 17:32:21;;;;;;;14.38;2.45;;;5.80;99.90;;;;;;10278943;28;84537;-46
2022/01/30 17:37:23;;;;;;;14.40;3.00;;;5.80;99.90;;;;;;10281125;28;84985;-47
2022/01/30 17:42:24;;;;;;;17.15;3.15;;;5.80;99.90;;;;;;10294684;28;84275;-46
2022/01/30 17:47:27;;;;;;;18.92;3.20;;;5.70;99.90;;;;;;10288136;28;84373;-44
2022/01/30 17:52:27;;;;;;;20.25;2.70;;;5.80;99.90;;;;;;10273245;28;84894;-43
2022/01/30 17:57:28;;;;;;;18.23;3.53;;;5.70;99.90;;;;;;10276580;28;84905;-44
2022/01/30 18:02:29;;;;;;;13.70;3.47;;;5.70;99.90;;;;;;10287666;28;84172;-46
2022/01/30 18:07:30;;;;;;;16.48;3.65;;;5.60;1.00;;;;;;10267013;28;84381;-49
2022/01/30 18:12:31;;;;;;;20.08;3.20;;;5.50;1.00;;;;;;10279056;28;85343;-47
2022/01/30 18:17:33;;;;;;;14.68;3.47;;;5.50;1.00;;;;;;10290252;28;85085;-48
2022/01/30 18:22:34;;;;;;;18.58;3.30;;;5.50;1.00;;;;;;10274508;28;84996;-47
2022/01/30 18:27:35;;;;;;;14.80;3.13;;;5.40;1.00;;;;;;10306564;28;84302;-49
2022/01/30 18:32:37;;;;;;;21.23;3.35;;;5.40;1.00;;;;;;10333703;28;85124;-48
2022/01/30 18:37:52;;;;;;;11.48;3.00;;;5.30;1.00;;;;;;10287077;28;85429;-51
2022/01/30 18:42:53;;;;;;;16.00;3.08;;;5.30;1.00;;;;;;10294762;28;84288;-46
2022/01/30 18:47:54;;;;;;;14.70;3.83;;;5.30;1.00;;;;;;10289441;28;84971;-44
2022/01/30 18:52:54;;;;;;;14.45;3.25;;;5.20;1.00;;;;;;10296429;28;84385;-50
2022/01/30 18:57:55;;;;;;;21.92;4.43;;;5.20;1.00;;;;;;10299185;28;84225;-44
2022/01/30 19:02:55;;;;;;;15.40;3.10;;;5.00;1.00;;;;;;10282383;28;84656;-41
2022/01/30 19:07:56;;;;;;;25.90;3.55;;;5.00;1.00;;;;;;10281120;28;84941;-43
2022/01/30 19:12:57;;;;;;;17.55;3.10;;;4.90;1.00;;;;;;10284193;28;84326;-46
2022/01/30 19:17:58;;;;;;;18.73;3.28;;;5.00;1.00;;;;;;10286649;28;84323;-45
2022/01/30 19:22:58;;;;;;;11.40;2.92;;;4.90;1.00;;;;;;10289607;28;84570;-43
2022/01/30 19:28:01;;;;;;;10.20;3.03;;;4.90;1.00;;;;;;10291569;28;86196;-46
2022/01/30 19:33:04;;;;;;;14.75;2.95;;;4.90;1.00;;;;;;10296133;28;84362;-46
2022/01/30 19:38:05;;;;;;;12.18;2.80;;;4.90;1.00;;;;;;10309318;28;84220;-45
2022/01/30 19:43:06;;;;;;;13.73;3.28;;;4.80;1.00;;;;;;10331410;28;84880;-44
2022/01/30 19:48:08;;;;;;;19.15;3.47;;;4.80;1.00;;;;;;10331321;28;84968;-45
2022/01/30 19:53:09;;;;;;;8.27;2.50;;;4.80;1.00;;;;;;10332346;28;85395;-43
2022/01/30 19:58:09;;;;;;;12.68;2.85;;;4.90;1.00;;;;;;10322215;28;84302;-49
2022/01/30 20:03:10;;;;;;;11.82;2.55;;;4.90;1.00;;;;;;10288425;28;85901;-47
2022/01/30 20:08:11;;;;;;;15.25;3.00;;;4.80;1.00;;;;;;10289372;28;84037;-44
2022/01/30 20:13:12;;;;;;;10.82;2.88;;;4.90;1.00;;;;;;10288094;28;85984;-44
2022/01/30 20:18:13;;;;;;;13.10;3.25;;;4.90;1.00;;;;;;10291137;28;84041;-50
2022/01/30 20:23:14;;;;;;;25.48;3.22;;;4.90;1.00;;;;;;10286676;28;84277;-44
2022/01/30 20:28:15;;;;;;;13.95;3.17;;;4.90;1.00;;;;;;10284055;28;86488;-49
2022/01/30 20:33:16;;;;;;;14.75;3.08;;;4.90;1.00;;;;;;10288841;28;84379;-44
2022/01/30 20:38:16;;;;;;;16.98;3.35;;;4.90;1.00;;;;;;10287456;28;84947;-43
2022/01/30 20:43:17;;;;;;;7.40;2.75;;;4.90;1.00;;;;;;10288063;28;85239;-42
2022/01/30 20:48:18;;;;;;;16.10;3.20;;;4.80;1.00;;;;;;10286784;28;86224;-46
2022/01/30 20:53:18;;;;;;;10.73;2.28;;;4.70;1.00;;;;;;10284549;28;84811;-44
2022/01/30 20:58:19;;;;;;;19.13;2.85;;;4.80;1.00;;;;;;10287783;28;84897;-42
2022/01/30 21:03:20;;;;;;;16.55;4.45;;;4.90;1.00;;;;;;10287448;28;84839;-44
2022/01/30 21:08:21;;;;;;;18.40;3.83;;;4.80;1.00;;;;;;10285738;28;86180;-44
2022/01/30 21:13:25;;;;;;;17.13;3.63;;;4.80;1.00;;;;;;10286256;28;84249;-46
2022/01/30 21:18:26;;;;;;;13.95;2.60;;;4.70;1.00;;;;;;10285225;28;87042;-46
2022/01/30 21:23:27;;;;;;;12.60;2.30;;;4.70;1.00;;;;;;10287306;28;84911;-42
2022/01/30 21:28:27;;;;;;;7.80;2.13;;;4.70;1.00;;;;;;10312991;28;84907;-42
2022/01/30 21:33:28;;;;;;;17.58;3.33;;;4.70;1.00;;;;;;10306235;28;85324;-44
2022/01/30 21:38:29;;;;;;;14.88;2.40;;;4.60;1.00;;;;;;10299223;28;84955;-46
2022/01/30 21:43:29;;;;;;;10.63;2.08;;;4.60;1.00;;;;;;10285015;28;85094;-45
2022/01/30 21:48:30;;;;;;;15.52;2.35;;;4.60;1.00;;;;;;10288202;28;86089;-44
2022/01/30 21:53:30;;;;;;;8.55;1.73;;;4.60;1.00;;;;;;10318437;28;84983;-41
2022/01/30 21:58:31;;;;;;;13.25;2.63;;;4.60;1.00;;;;;;10327147;28;85290;-38
2022/01/30 22:03:32;;;;;;;14.48;2.92;;;4.70;1.00;;;;;;10327366;28;85003;-49
2022/01/30 22:08:32;;;;;;;10.23;2.47;;;4.80;1.00;;;;;;10326292;28;84006;-45
2022/01/30 22:13:39;;;;;;;8.85;1.88;;;4.80;1.00;;;;;;10314766;28;84269;-45
2022/01/30 22:18:40;;;;;;;8.02;2.17;;;4.80;1.00;;;;;;10323932;28;84857;-43
2022/01/30 22:23:40;;;;;;;10.35;2.63;;;4.70;1.00;;;;;;10325963;28;83967;-45
2022/01/30 22:28:42;;;;;;;11.90;2.40;;;4.60;1.00;;;;;;10324839;28;86024;-45
2022/01/30 22:33:43;;;;;;;10.85;1.63;;;4.60;1.00;;;;;;10286061;28;84924;-42
2022/01/30 22:38:43;;;;;;;13.07;2.72;;;4.60;1.00;;;;;;10292059;28;84971;-42
2022/01/30 22:43:44;;;;;;;5.45;1.40;;;4.70;1.00;;;;;;10290582;28;85128;-50
2022/01/30 22:48:45;;;;;;;11.82;2.03;;;4.60;1.00;;;;;;10291119;28;84110;-44
2022/01/30 22:53:46;;;;;;;9.93;1.83;;;4.60;1.00;;;;;;10289643;28;84491;-44
2022/01/30 22:58:49;;;;;;;6.50;2.00;;;4.60;1.00;;;;;;10291235;28;84097;-47
2022/01/30 23:03:50;;;;;;;9.68;2.40;;;4.60;1.00;;;;;;10291522;28;84028;-43
2022/01/30 23:08:50;;;;;;;10.43;1.95;;;4.60;1.00;;;;;;10289655;28;84079;-43
2022/01/30 23:13:51;;;;;;;12.05;2.10;;;4.60;1.00;;;;;;10296580;22;87213;-51
2022/01/30 23:18:52;;;;;;;8.98;2.47;;;4.60;1.00;;;;;;10251293;28;84296;-53
2022/01/30 23:24:01;;;;;;;6.32;1.85;;;4.60;1.00;;;;;;10250278;28;84137;-53
2022/01/30 23:29:08;;;;;;;12.18;2.60;;;4.60;1.00;;;;;;10249766;28;84184;-54
2022/01/30 23:34:09;;;;;;;11.40;2.88;;;4.60;1.00;;;;;;10249791;28;84756;-54
2022/01/30 23:39:11;;;;;;;14.35;2.33;;;4.60;1.00;;;;;;10249717;28;84202;-52
2022/01/30 23:44:14;;;;;;;9.77;2.53;;;4.60;1.00;;;;;;10248931;28;84099;-53
2022/01/30 23:49:14;;;;;;;12.82;2.42;;;4.60;1.00;;;;;;10249330;28;85222;-54
2022/01/30 23:54:15;;;;;;;9.88;2.97;;;4.70;1.00;;;;;;10249282;28;84309;-50
2022/01/30 23:59:16;;;;;;;6.65;2.33;;;4.70;1.00;;;;;;10248138;28;84965;-54
